sensor_id;sensor_type;location;lat;lon;timestamp;pressure;altitude;pressure_sealevel;temperature;humidity
84639;BME280;74869;51.924;5.712;2024-01-11T00:01:57;103342.75;;;-4.69;69.46
84639;BME280;74869;51.924;5.712;2024-01-11T00:04:22;103326.03;;;-4.79;69.63
84639;BME280;74869;51.924;5.712;2024-01-11T00:06:49;103349.50;;;-4.78;69.68
84639;BME280;74869;51.924;5.712;2024-01-11T00:09:14;103341.19;;;-4.83;69.68
84639;BME280;74869;51.924;5.712;2024-01-11T00:11:40;103329.38;;;-5.00;69.22
84639;BME280;74869;51.924;5.712;2024-01-11T00:14:05;103343.41;;;-5.01;69.67
84639;BME280;74869;51.924;5.712;2024-01-11T00:16:30;103338.84;;;-5.10;69.86
84639;BME280;74869;51.924;5.712;2024-01-11T00:18:56;103333.84;;;-5.13;70.27
84639;BME280;74869;51.924;5.712;2024-01-11T00:21:21;103339.31;;;-5.16;70.16
84639;BME280;74869;51.924;5.712;2024-01-11T00:23:46;103354.28;;;-5.18;70.24
84639;BME280;74869;51.924;5.712;2024-01-11T00:26:12;103334.59;;;-5.35;70.38
84639;BME280;74869;51.924;5.712;2024-01-11T00:28:38;103346.41;;;-5.29;70.58
84639;BME280;74869;51.924;5.712;2024-01-11T00:31:03;103330.41;;;-5.37;70.48
84639;BME280;74869;51.924;5.712;2024-01-11T00:33:29;103339.47;;;-5.41;70.74
84639;BME280;74869;51.924;5.712;2024-01-11T00:35:55;103321.09;;;-5.52;70.76
84639;BME280;74869;51.924;5.712;2024-01-11T00:38:20;103337.19;;;-5.46;71.06
84639;BME280;74869;51.924;5.712;2024-01-11T00:40:45;103344.19;;;-5.46;70.92
84639;BME280;74869;51.924;5.712;2024-01-11T00:43:11;103344.47;;;-5.38;71.19
84639;BME280;74869;51.924;5.712;2024-01-11T00:45:37;103344.69;;;-5.41;71.16
84639;BME280;74869;51.924;5.712;2024-01-11T00:48:02;103349.72;;;-5.38;71.25
84639;BME280;74869;51.924;5.712;2024-01-11T00:50:28;103351.34;;;-5.37;71.27
84639;BME280;74869;51.924;5.712;2024-01-11T00:52:53;103350.66;;;-5.39;71.49
84639;BME280;74869;51.924;5.712;2024-01-11T00:55:19;103350.66;;;-5.39;72.03
84639;BME280;74869;51.924;5.712;2024-01-11T00:57:44;103352.34;;;-5.38;71.48
84639;BME280;74869;51.924;5.712;2024-01-11T01:00:11;103358.72;;;-5.42;71.83
84639;BME280;74869;51.924;5.712;2024-01-11T01:02:39;103353.50;;;-5.42;72.05
84639;BME280;74869;51.924;5.712;2024-01-11T01:05:05;103347.75;;;-5.47;71.67
84639;BME280;74869;51.924;5.712;2024-01-11T01:07:31;103351.81;;;-5.43;72.13
84639;BME280;74869;51.924;5.712;2024-01-11T01:09:56;103345.34;;;-5.50;72.02
84639;BME280;74869;51.924;5.712;2024-01-11T01:12:22;103353.72;;;-5.45;72.33
84639;BME280;74869;51.924;5.712;2024-01-11T01:14:47;103365.97;;;-5.46;72.11
84639;BME280;74869;51.924;5.712;2024-01-11T01:17:12;103354.19;;;-5.51;71.42
84639;BME280;74869;51.924;5.712;2024-01-11T01:19:38;103344.38;;;-5.60;72.25
84639;BME280;74869;51.924;5.712;2024-01-11T01:22:03;103357.25;;;-5.57;72.31
84639;BME280;74869;51.924;5.712;2024-01-11T01:24:28;103366.13;;;-5.60;72.06
84639;BME280;74869;51.924;5.712;2024-01-11T01:26:53;103350.06;;;-5.67;72.09
84639;BME280;74869;51.924;5.712;2024-01-11T01:29:19;103370.97;;;-5.67;72.35
84639;BME280;74869;51.924;5.712;2024-01-11T01:31:44;103354.34;;;-5.66;72.41
84639;BME280;74869;51.924;5.712;2024-01-11T01:34:09;103362.41;;;-5.69;72.21
84639;BME280;74869;51.924;5.712;2024-01-11T01:36:35;103365.94;;;-5.70;72.40
84639;BME280;74869;51.924;5.712;2024-01-11T01:39:00;103364.41;;;-5.72;72.61
84639;BME280;74869;51.924;5.712;2024-01-11T01:41:25;103351.97;;;-5.81;72.85
84639;BME280;74869;51.924;5.712;2024-01-11T01:43:51;103363.50;;;-5.84;72.39
84639;BME280;74869;51.924;5.712;2024-01-11T01:46:20;103377.53;;;-5.85;72.80
84639;BME280;74869;51.924;5.712;2024-01-11T01:48:46;103376.09;;;-5.89;72.64
84639;BME280;74869;51.924;5.712;2024-01-11T01:51:12;103368.28;;;-6.01;72.71
84639;BME280;74869;51.924;5.712;2024-01-11T01:53:37;103374.16;;;-5.98;72.67
84639;BME280;74869;51.924;5.712;2024-01-11T01:56:03;103372.47;;;-5.99;72.77
84639;BME280;74869;51.924;5.712;2024-01-11T01:58:29;103380.31;;;-5.99;72.83
84639;BME280;74869;51.924;5.712;2024-01-11T02:00:55;103356.91;;;-6.13;72.90
84639;BME280;74869;51.924;5.712;2024-01-11T02:03:20;103372.41;;;-6.10;73.26
84639;BME280;74869;51.924;5.712;2024-01-11T02:05:45;103387.66;;;-6.04;72.83
84639;BME280;74869;51.924;5.712;2024-01-11T02:08:15;103380.84;;;-6.07;73.07
84639;BME280;74869;51.924;5.712;2024-01-11T02:10:41;103379.50;;;-6.12;73.46
84639;BME280;74869;51.924;5.712;2024-01-11T02:13:07;103381.19;;;-6.11;73.66
84639;BME280;74869;51.924;5.712;2024-01-11T02:15:33;103377.81;;;-6.13;74.04
84639;BME280;74869;51.924;5.712;2024-01-11T02:17:58;103385.78;;;-6.02;73.80
84639;BME280;74869;51.924;5.712;2024-01-11T02:20:23;103389.31;;;-6.03;73.90
84639;BME280;74869;51.924;5.712;2024-01-11T02:22:53;103367.38;;;-6.13;73.77
84639;BME280;74869;51.924;5.712;2024-01-11T02:25:21;103369.69;;;-6.09;73.78
84639;BME280;74869;51.924;5.712;2024-01-11T02:27:50;103375.75;;;-6.08;74.12
84639;BME280;74869;51.924;5.712;2024-01-11T02:30:16;103370.91;;;-6.14;74.26
84639;BME280;74869;51.924;5.712;2024-01-11T02:32:46;103384.31;;;-6.06;74.37
84639;BME280;74869;51.924;5.712;2024-01-11T02:35:15;103388.59;;;-6.05;74.05
84639;BME280;74869;51.924;5.712;2024-01-11T02:37:40;103395.59;;;-6.05;74.22
84639;BME280;74869;51.924;5.712;2024-01-11T02:40:07;103398.09;;;-6.04;74.53
84639;BME280;74869;51.924;5.712;2024-01-11T02:42:34;103395.00;;;-6.09;74.37
84639;BME280;74869;51.924;5.712;2024-01-11T02:44:59;103393.41;;;-6.12;74.68
84639;BME280;74869;51.924;5.712;2024-01-11T02:47:25;103388.50;;;-6.03;74.75
84639;BME280;74869;51.924;5.712;2024-01-11T02:49:51;103391.00;;;-6.02;74.68
84639;BME280;74869;51.924;5.712;2024-01-11T02:52:16;103382.19;;;-6.01;75.03
84639;BME280;74869;51.924;5.712;2024-01-11T02:54:41;103365.28;;;-6.08;75.04
84639;BME280;74869;51.924;5.712;2024-01-11T02:57:07;103370.28;;;-6.05;75.20
84639;BME280;74869;51.924;5.712;2024-01-11T02:59:32;103345.94;;;-6.18;74.76
84639;BME280;74869;51.924;5.712;2024-01-11T03:01:57;103371.66;;;-6.12;74.91
84639;BME280;74869;51.924;5.712;2024-01-11T03:04:23;103375.22;;;-6.13;75.00
84639;BME280;74869;51.924;5.712;2024-01-11T03:06:48;103370.72;;;-6.11;75.20
84639;BME280;74869;51.924;5.712;2024-01-11T03:09:13;103366.53;;;-6.14;75.31
84639;BME280;74869;51.924;5.712;2024-01-11T03:11:39;103361.13;;;-6.23;75.21
84639;BME280;74869;51.924;5.712;2024-01-11T03:14:04;103368.03;;;-6.22;74.77
84639;BME280;74869;51.924;5.712;2024-01-11T03:16:30;103352.03;;;-6.30;75.21
84639;BME280;74869;51.924;5.712;2024-01-11T03:18:55;103368.34;;;-6.27;75.38
84639;BME280;74869;51.924;5.712;2024-01-11T03:21:20;103360.31;;;-6.36;75.52
84639;BME280;74869;51.924;5.712;2024-01-11T03:23:46;103362.69;;;-6.33;75.53
84639;BME280;74869;51.924;5.712;2024-01-11T03:26:17;103369.50;;;-6.43;75.63
84639;BME280;74869;51.924;5.712;2024-01-11T03:28:43;103373.91;;;-6.44;75.70
84639;BME280;74869;51.924;5.712;2024-01-11T03:31:09;103374.22;;;-6.49;75.57
84639;BME280;74869;51.924;5.712;2024-01-11T03:33:35;103379.78;;;-6.53;75.40
84639;BME280;74869;51.924;5.712;2024-01-11T03:36:06;103406.09;;;-6.43;76.09
84639;BME280;74869;51.924;5.712;2024-01-11T03:38:32;103401.09;;;-6.46;76.30
84639;BME280;74869;51.924;5.712;2024-01-11T03:40:58;103399.69;;;-6.39;76.50
84639;BME280;74869;51.924;5.712;2024-01-11T03:43:23;103393.97;;;-6.44;76.62
84639;BME280;74869;51.924;5.712;2024-01-11T03:45:48;103401.69;;;-6.30;76.32
84639;BME280;74869;51.924;5.712;2024-01-11T03:48:13;103398.88;;;-6.27;76.26
84639;BME280;74869;51.924;5.712;2024-01-11T03:50:39;103406.72;;;-6.27;76.41
84639;BME280;74869;51.924;5.712;2024-01-11T03:53:04;103396.28;;;-6.27;76.70
84639;BME280;74869;51.924;5.712;2024-01-11T03:55:29;103393.03;;;-6.31;76.90
84639;BME280;74869;51.924;5.712;2024-01-11T03:57:55;103394.88;;;-6.33;76.66
84639;BME280;74869;51.924;5.712;2024-01-11T04:00:20;103395.97;;;-6.35;76.78
84639;BME280;74869;51.924;5.712;2024-01-11T04:02:45;103397.09;;;-6.39;76.27
84639;BME280;74869;51.924;5.712;2024-01-11T04:05:11;103375.16;;;-6.50;76.50
84639;BME280;74869;51.924;5.712;2024-01-11T04:07:36;103375.16;;;-6.50;76.65
84639;BME280;74869;51.924;5.712;2024-01-11T04:10:01;103387.28;;;-6.49;76.83
84639;BME280;74869;51.924;5.712;2024-01-11T04:12:27;103395.13;;;-6.49;77.07
84639;BME280;74869;51.924;5.712;2024-01-11T04:14:52;103410.28;;;-6.54;76.92
84639;BME280;74869;51.924;5.712;2024-01-11T04:17:17;103412.56;;;-6.62;76.84
84639;BME280;74869;51.924;5.712;2024-01-11T04:19:43;103421.16;;;-6.60;77.18
84639;BME280;74869;51.924;5.712;2024-01-11T04:22:08;103417.78;;;-6.62;77.53
84639;BME280;74869;51.924;5.712;2024-01-11T04:24:33;103411.22;;;-6.67;77.40
84639;BME280;74869;51.924;5.712;2024-01-11T04:26:59;103411.31;;;-6.69;77.34
84639;BME280;74869;51.924;5.712;2024-01-11T04:29:24;103406.09;;;-6.69;77.68
84639;BME280;74869;51.924;5.712;2024-01-11T04:31:49;103407.00;;;-6.70;77.33
84639;BME280;74869;51.924;5.712;2024-01-11T04:34:15;103421.75;;;-6.69;77.46
84639;BME280;74869;51.924;5.712;2024-01-11T04:36:40;103419.88;;;-6.67;77.44
84639;BME280;74869;51.924;5.712;2024-01-11T04:39:05;103416.72;;;-6.72;78.01
84639;BME280;74869;51.924;5.712;2024-01-11T04:41:35;103424.16;;;-6.66;77.74
84639;BME280;74869;51.924;5.712;2024-01-11T04:44:00;103434.81;;;-6.69;78.26
84639;BME280;74869;51.924;5.712;2024-01-11T04:46:26;103446.19;;;-6.70;78.02
84639;BME280;74869;51.924;5.712;2024-01-11T04:48:51;103442.66;;;-6.69;78.63
84639;BME280;74869;51.924;5.712;2024-01-11T04:51:18;103449.72;;;-6.71;77.68
84639;BME280;74869;51.924;5.712;2024-01-11T04:53:44;103439.69;;;-6.77;78.66
84639;BME280;74869;51.924;5.712;2024-01-11T04:56:11;103451.63;;;-6.73;78.03
84639;BME280;74869;51.924;5.712;2024-01-11T04:58:39;103448.28;;;-6.75;78.93
84639;BME280;74869;51.924;5.712;2024-01-11T05:01:06;103450.38;;;-6.80;78.35
84639;BME280;74869;51.924;5.712;2024-01-11T05:03:31;103448.28;;;-6.75;78.40
84639;BME280;74869;51.924;5.712;2024-01-11T05:06:00;103445.75;;;-6.76;78.44
84639;BME280;74869;51.924;5.712;2024-01-11T05:08:26;103427.78;;;-6.81;78.57
84639;BME280;74869;51.924;5.712;2024-01-11T05:10:52;103425.28;;;-6.82;78.96
84639;BME280;74869;51.924;5.712;2024-01-11T05:13:18;103404.59;;;-6.98;78.74
84639;BME280;74869;51.924;5.712;2024-01-11T05:15:44;103422.25;;;-6.89;78.83
84639;BME280;74869;51.924;5.712;2024-01-11T05:18:09;103432.38;;;-6.84;79.15
84639;BME280;74869;51.924;5.712;2024-01-11T05:20:34;103419.63;;;-6.89;79.17
84639;BME280;74869;51.924;5.712;2024-01-11T05:23:00;103446.81;;;-6.79;79.19
84639;BME280;74869;51.924;5.712;2024-01-11T05:25:26;103435.63;;;-6.81;78.88
84639;BME280;74869;51.924;5.712;2024-01-11T05:27:51;103422.97;;;-6.87;79.30
84639;BME280;74869;51.924;5.712;2024-01-11T05:30:17;103427.16;;;-6.84;79.25
84639;BME280;74869;51.924;5.712;2024-01-11T05:32:42;103411.06;;;-6.91;79.16
84639;BME280;74869;51.924;5.712;2024-01-11T05:35:08;103437.16;;;-6.91;79.50
84639;BME280;74869;51.924;5.712;2024-01-11T05:37:33;103435.50;;;-6.92;79.12
84639;BME280;74869;51.924;5.712;2024-01-11T05:39:58;103432.34;;;-6.97;79.35
84639;BME280;74869;51.924;5.712;2024-01-11T05:42:24;103437.81;;;-6.88;79.99
84639;BME280;74869;51.924;5.712;2024-01-11T05:44:51;103426.94;;;-6.94;79.28
84639;BME280;74869;51.924;5.712;2024-01-11T05:47:16;103423.81;;;-6.86;79.69
84639;BME280;74869;51.924;5.712;2024-01-11T05:49:42;103408.84;;;-6.97;79.68
84639;BME280;74869;51.924;5.712;2024-01-11T05:52:07;103423.03;;;-7.01;79.62
84639;BME280;74869;51.924;5.712;2024-01-11T05:54:32;103415.81;;;-7.10;79.82
84639;BME280;74869;51.924;5.712;2024-01-11T05:56:57;103435.25;;;-7.02;79.32
84639;BME280;74869;51.924;5.712;2024-01-11T05:59:23;103436.31;;;-7.04;79.58
84639;BME280;74869;51.924;5.712;2024-01-11T06:01:48;103444.50;;;-7.10;79.43
84639;BME280;74869;51.924;5.712;2024-01-11T06:04:14;103418.00;;;-7.17;79.18
84639;BME280;74869;51.924;5.712;2024-01-11T06:06:40;103430.00;;;-7.14;79.82
84639;BME280;74869;51.924;5.712;2024-01-11T06:09:05;103435.03;;;-7.11;79.33
84639;BME280;74869;51.924;5.712;2024-01-11T06:11:30;103431.88;;;-7.16;80.18
84639;BME280;74869;51.924;5.712;2024-01-11T06:13:56;103442.31;;;-7.16;79.65
84639;BME280;74869;51.924;5.712;2024-01-11T06:16:22;103451.09;;;-7.17;79.33
84639;BME280;74869;51.924;5.712;2024-01-11T06:18:47;103445.44;;;-7.24;79.91
84639;BME280;74869;51.924;5.712;2024-01-11T06:21:13;103444.03;;;-7.30;79.98
84639;BME280;74869;51.924;5.712;2024-01-11T06:23:38;103468.63;;;-7.19;79.82
84639;BME280;74869;51.924;5.712;2024-01-11T06:26:04;103465.06;;;-7.18;80.19
84639;BME280;74869;51.924;5.712;2024-01-11T06:28:29;103460.03;;;-7.21;79.55
84639;BME280;74869;51.924;5.712;2024-01-11T06:30:55;103478.41;;;-7.23;79.67
84639;BME280;74869;51.924;5.712;2024-01-11T06:33:20;103495.09;;;-7.25;80.02
84639;BME280;74869;51.924;5.712;2024-01-11T06:35:45;103532.72;;;-7.15;79.78
84639;BME280;74869;51.924;5.712;2024-01-11T06:38:11;103525.41;;;-7.10;80.40
84639;BME280;74869;51.924;5.712;2024-01-11T06:40:36;103494.72;;;-7.19;80.46
84639;BME280;74869;51.924;5.712;2024-01-11T06:43:02;103518.59;;;-6.99;80.38
84639;BME280;74869;51.924;5.712;2024-01-11T06:45:27;103508.25;;;-7.00;80.09
84639;BME280;74869;51.924;5.712;2024-01-11T06:47:52;103514.41;;;-7.01;80.42
84639;BME280;74869;51.924;5.712;2024-01-11T06:50:18;103510.03;;;-7.01;80.83
84639;BME280;74869;51.924;5.712;2024-01-11T06:52:43;103509.19;;;-7.01;80.75
84639;BME280;74869;51.924;5.712;2024-01-11T06:55:09;103510.97;;;-7.02;80.34
84639;BME280;74869;51.924;5.712;2024-01-11T06:57:36;103512.34;;;-6.96;80.79
84639;BME280;74869;51.924;5.712;2024-01-11T07:00:01;103515.88;;;-6.97;80.83
84639;BME280;74869;51.924;5.712;2024-01-11T07:02:27;103512.56;;;-6.99;80.69
84639;BME280;74869;51.924;5.712;2024-01-11T07:04:52;103507.72;;;-7.05;80.78
84639;BME280;74869;51.924;5.712;2024-01-11T07:07:18;103536.97;;;-7.00;80.79
84639;BME280;74869;51.924;5.712;2024-01-11T07:09:43;103516.28;;;-7.03;80.67
84639;BME280;74869;51.924;5.712;2024-01-11T07:12:09;103531.75;;;-7.00;81.17
84639;BME280;74869;51.924;5.712;2024-01-11T07:14:35;103533.44;;;-6.99;81.30
84639;BME280;74869;51.924;5.712;2024-01-11T07:17:00;103521.72;;;-7.06;81.03
84639;BME280;74869;51.924;5.712;2024-01-11T07:19:26;103516.88;;;-7.12;80.72
84639;BME280;74869;51.924;5.712;2024-01-11T07:21:51;103536.97;;;-7.00;81.39
84639;BME280;74869;51.924;5.712;2024-01-11T07:24:16;103533.44;;;-6.99;81.51
84639;BME280;74869;51.924;5.712;2024-01-11T07:26:43;103518.50;;;-6.97;81.71
84639;BME280;74869;51.924;5.712;2024-01-11T07:29:09;103525.13;;;-6.92;81.95
84639;BME280;74869;51.924;5.712;2024-01-11T07:31:34;103510.78;;;-6.99;81.51
84639;BME280;74869;51.924;5.712;2024-01-11T07:34:00;103515.38;;;-6.90;81.46
84639;BME280;74869;51.924;5.712;2024-01-11T07:36:25;103505.88;;;-6.91;81.38
84639;BME280;74869;51.924;5.712;2024-01-11T07:38:50;103502.81;;;-6.97;81.46
84639;BME280;74869;51.924;5.712;2024-01-11T07:41:16;103493.34;;;-6.98;81.03
84639;BME280;74869;51.924;5.712;2024-01-11T07:43:41;103476.19;;;-7.02;81.73
84639;BME280;74869;51.924;5.712;2024-01-11T07:46:06;103495.44;;;-6.91;81.66
84639;BME280;74869;51.924;5.712;2024-01-11T07:48:33;103493.13;;;-6.95;81.26
84639;BME280;74869;51.924;5.712;2024-01-11T07:50:59;103481.63;;;-7.05;81.08
84639;BME280;74869;51.924;5.712;2024-01-11T07:53:24;103508.03;;;-6.97;81.08
84639;BME280;74869;51.924;5.712;2024-01-11T07:55:51;103513.84;;;-6.92;81.40
84639;BME280;74869;51.924;5.712;2024-01-11T07:58:16;103508.41;;;-6.89;81.65
84639;BME280;74869;51.924;5.712;2024-01-11T08:00:41;103519.69;;;-6.89;81.13
84639;BME280;74869;51.924;5.712;2024-01-11T08:03:07;103505.03;;;-6.91;81.65
84639;BME280;74869;51.924;5.712;2024-01-11T08:05:33;103502.44;;;-6.91;81.27
84639;BME280;74869;51.924;5.712;2024-01-11T08:07:59;103500.16;;;-6.83;81.78
84639;BME280;74869;51.924;5.712;2024-01-11T08:10:27;103493.47;;;-6.87;81.41
84639;BME280;74869;51.924;5.712;2024-01-11T08:12:52;103495.69;;;-6.81;81.74
84639;BME280;74869;51.924;5.712;2024-01-11T08:15:17;103497.75;;;-6.86;81.12
84639;BME280;74869;51.924;5.712;2024-01-11T08:17:46;103500.69;;;-6.78;81.36
84639;BME280;74869;51.924;5.712;2024-01-11T08:20:11;103505.50;;;-6.72;81.00
84639;BME280;74869;51.924;5.712;2024-01-11T08:22:39;103523.13;;;-6.61;81.24
84639;BME280;74869;51.924;5.712;2024-01-11T08:25:04;103507.63;;;-6.64;81.56
84639;BME280;74869;51.924;5.712;2024-01-11T08:27:31;103524.06;;;-6.50;81.14
84639;BME280;74869;51.924;5.712;2024-01-11T08:29:57;103490.72;;;-6.59;81.10
84639;BME280;74869;51.924;5.712;2024-01-11T08:32:22;103508.00;;;-6.43;81.13
84639;BME280;74869;51.924;5.712;2024-01-11T08:34:47;103501.41;;;-6.36;81.38
84639;BME280;74869;51.924;5.712;2024-01-11T08:37:13;103517.53;;;-6.30;80.99
84639;BME280;74869;51.924;5.712;2024-01-11T08:39:39;103511.28;;;-6.27;81.05
84639;BME280;74869;51.924;5.712;2024-01-11T08:42:05;103521.09;;;-6.18;81.25
84639;BME280;74869;51.924;5.712;2024-01-11T08:44:30;103516.09;;;-6.21;81.41
84639;BME280;74869;51.924;5.712;2024-01-11T08:46:56;103518.38;;;-6.04;80.79
84639;BME280;74869;51.924;5.712;2024-01-11T08:49:22;103529.88;;;-5.94;81.15
84639;BME280;74869;51.924;5.712;2024-01-11T08:51:48;103515.13;;;-5.95;81.14
84639;BME280;74869;51.924;5.712;2024-01-11T08:54:13;103543.47;;;-5.76;81.18
84639;BME280;74869;51.924;5.712;2024-01-11T08:56:41;103541.53;;;-5.74;80.97
84639;BME280;74869;51.924;5.712;2024-01-11T08:59:07;103545.09;;;-5.62;81.21
84639;BME280;74869;51.924;5.712;2024-01-11T09:01:34;103554.41;;;-5.58;81.09
84639;BME280;74869;51.924;5.712;2024-01-11T09:04:01;103565.56;;;-5.44;80.98
84639;BME280;74869;51.924;5.712;2024-01-11T09:06:26;103559.31;;;-5.41;80.80
84639;BME280;74869;51.924;5.712;2024-01-11T09:08:52;103571.53;;;-5.29;80.75
84639;BME280;74869;51.924;5.712;2024-01-11T09:11:18;103569.31;;;-5.22;80.61
84639;BME280;74869;51.924;5.712;2024-01-11T09:13:43;103572.69;;;-5.20;80.76
84639;BME280;74869;51.924;5.712;2024-01-11T09:16:09;103572.25;;;-5.14;80.51
84639;BME280;74869;51.924;5.712;2024-01-11T09:18:34;103582.88;;;-5.05;80.64
84639;BME280;74869;51.924;5.712;2024-01-11T09:21:00;103568.00;;;-5.04;80.21
84639;BME280;74869;51.924;5.712;2024-01-11T09:23:25;103583.25;;;-4.86;80.00
84639;BME280;74869;51.924;5.712;2024-01-11T09:25:50;103560.41;;;-4.83;79.69
84639;BME280;74869;51.924;5.712;2024-01-11T09:28:16;103566.41;;;-4.70;79.88
84639;BME280;74869;51.924;5.712;2024-01-11T09:30:41;103566.84;;;-4.53;79.52
84639;BME280;74869;51.924;5.712;2024-01-11T09:33:06;103573.69;;;-4.39;79.07
84639;BME280;74869;51.924;5.712;2024-01-11T09:35:32;103560.38;;;-4.36;79.34
84639;BME280;74869;51.924;5.712;2024-01-11T09:37:57;103567.81;;;-4.19;79.20
84639;BME280;74869;51.924;5.712;2024-01-11T09:40:23;103577.16;;;-4.03;78.89
84639;BME280;74869;51.924;5.712;2024-01-11T09:42:48;103591.00;;;-3.90;78.26
84639;BME280;74869;51.924;5.712;2024-01-11T09:45:16;103592.47;;;-3.75;78.07
84639;BME280;74869;51.924;5.712;2024-01-11T09:47:43;103581.25;;;-3.66;77.93
84639;BME280;74869;51.924;5.712;2024-01-11T09:50:11;103593.91;;;-3.49;77.64
84639;BME280;74869;51.924;5.712;2024-01-11T09:52:48;103592.72;;;-3.34;77.46
84639;BME280;74869;51.924;5.712;2024-01-11T09:55:13;103589.84;;;-3.19;77.25
84639;BME280;74869;51.924;5.712;2024-01-11T09:57:41;103600.81;;;-3.03;76.74
84639;BME280;74869;51.924;5.712;2024-01-11T10:00:09;103600.44;;;-2.99;76.28
84639;BME280;74869;51.924;5.712;2024-01-11T10:02:34;103593.78;;;-3.03;76.22
84639;BME280;74869;51.924;5.712;2024-01-11T10:04:59;103600.06;;;-2.94;76.26
84639;BME280;74869;51.924;5.712;2024-01-11T10:07:25;103612.72;;;-2.77;76.13
84639;BME280;74869;51.924;5.712;2024-01-11T10:09:51;103613.63;;;-2.67;75.70
84639;BME280;74869;51.924;5.712;2024-01-11T10:12:20;103595.00;;;-2.64;75.87
84639;BME280;74869;51.924;5.712;2024-01-11T10:14:48;103604.41;;;-2.50;76.29
84639;BME280;74869;51.924;5.712;2024-01-11T10:17:14;103591.81;;;-2.47;75.94
84639;BME280;74869;51.924;5.712;2024-01-11T10:19:39;103603.47;;;-2.28;75.65
84639;BME280;74869;51.924;5.712;2024-01-11T10:22:05;103602.06;;;-2.32;75.21
84639;BME280;74869;51.924;5.712;2024-01-11T10:24:32;103607.53;;;-2.24;74.65
84639;BME280;74869;51.924;5.712;2024-01-11T10:26:57;103606.53;;;-2.23;74.95
84639;BME280;74869;51.924;5.712;2024-01-11T10:29:30;103611.06;;;-2.14;74.82
84639;BME280;74869;51.924;5.712;2024-01-11T10:31:56;103593.59;;;-2.15;74.35
84639;BME280;74869;51.924;5.712;2024-01-11T10:34:23;103595.13;;;-2.13;74.32
84639;BME280;74869;51.924;5.712;2024-01-11T10:36:50;103596.31;;;-2.06;74.44
84639;BME280;74869;51.924;5.712;2024-01-11T10:39:16;103601.41;;;-2.04;74.08
84639;BME280;74869;51.924;5.712;2024-01-11T10:41:47;103595.19;;;-2.03;74.17
84639;BME280;74869;51.924;5.712;2024-01-11T10:44:21;103602.91;;;-1.90;74.08
84639;BME280;74869;51.924;5.712;2024-01-11T10:46:48;103596.28;;;-1.85;73.88
84639;BME280;74869;51.924;5.712;2024-01-11T10:49:17;103596.34;;;-1.75;74.18
84639;BME280;74869;51.924;5.712;2024-01-11T10:51:46;103572.78;;;-1.77;74.29
84639;BME280;74869;51.924;5.712;2024-01-11T10:54:15;103586.84;;;-1.67;73.86
84639;BME280;74869;51.924;5.712;2024-01-11T10:56:42;103578.09;;;-1.67;73.92
84639;BME280;74869;51.924;5.712;2024-01-11T10:59:10;103588.44;;;-1.54;74.11
84639;BME280;74869;51.924;5.712;2024-01-11T11:01:38;103586.78;;;-1.46;74.10
84639;BME280;74869;51.924;5.712;2024-01-11T11:04:04;103591.94;;;-1.44;74.51
84639;BME280;74869;51.924;5.712;2024-01-11T11:06:31;103605.47;;;-1.28;74.70
84639;BME280;74869;51.924;5.712;2024-01-11T11:08:58;103599.91;;;-1.25;74.35
84639;BME280;74869;51.924;5.712;2024-01-11T11:11:24;103608.94;;;-1.18;75.06
84639;BME280;74869;51.924;5.712;2024-01-11T11:13:49;103623.25;;;-1.11;74.94
84639;BME280;74869;51.924;5.712;2024-01-11T11:16:16;103644.38;;;-1.01;75.36
84639;BME280;74869;51.924;5.712;2024-01-11T11:18:41;103653.72;;;-0.88;76.10
84639;BME280;74869;51.924;5.712;2024-01-11T11:21:10;103638.72;;;-0.97;76.12
84639;BME280;74869;51.924;5.712;2024-01-11T11:23:37;103646.72;;;-1.08;76.88
84639;BME280;74869;51.924;5.712;2024-01-11T11:26:05;103642.06;;;-1.25;77.39
84639;BME280;74869;51.924;5.712;2024-01-11T11:28:31;103639.78;;;-1.39;78.71
84639;BME280;74869;51.924;5.712;2024-01-11T11:30:59;103635.88;;;-1.45;79.00
84639;BME280;74869;51.924;5.712;2024-01-11T11:33:25;103633.03;;;-1.32;79.45
84639;BME280;74869;51.924;5.712;2024-01-11T11:35:57;103628.78;;;-1.24;79.24
84639;BME280;74869;51.924;5.712;2024-01-11T11:38:26;103618.91;;;-1.22;79.98
84639;BME280;74869;51.924;5.712;2024-01-11T11:40:52;103620.47;;;-1.19;80.15
84639;BME280;74869;51.924;5.712;2024-01-11T11:43:19;103607.03;;;-1.16;80.54
84639;BME280;74869;51.924;5.712;2024-01-11T11:45:50;103610.09;;;-1.11;80.14
84639;BME280;74869;51.924;5.712;2024-01-11T11:53:39;103591.41;;;-0.89;80.69
84639;BME280;74869;51.924;5.712;2024-01-11T11:56:05;103585.31;;;-0.79;80.96
84639;BME280;74869;51.924;5.712;2024-01-11T11:58:32;103596.56;;;-0.77;80.86
84639;BME280;74869;51.924;5.712;2024-01-11T12:00:59;103593.09;;;-0.68;80.38
84639;BME280;74869;51.924;5.712;2024-01-11T12:03:35;103596.16;;;-0.63;80.68
84639;BME280;74869;51.924;5.712;2024-01-11T12:06:03;103588.13;;;-0.62;80.96
84639;BME280;74869;51.924;5.712;2024-01-11T12:08:29;103583.25;;;-0.57;80.61
84639;BME280;74869;51.924;5.712;2024-01-11T12:10:55;103576.72;;;-0.62;81.00
84639;BME280;74869;51.924;5.712;2024-01-11T12:13:20;103568.81;;;-0.62;81.07
84639;BME280;74869;51.924;5.712;2024-01-11T12:15:46;103574.22;;;-0.54;81.56
84639;BME280;74869;51.924;5.712;2024-01-11T12:18:12;103568.41;;;-0.48;81.34
84639;BME280;74869;51.924;5.712;2024-01-11T12:20:37;103565.78;;;-0.38;81.51
84639;BME280;74869;51.924;5.712;2024-01-11T12:23:03;103553.38;;;-0.38;81.22
84639;BME280;74869;51.924;5.712;2024-01-11T12:25:28;103567.28;;;-0.26;81.53
84639;BME280;74869;51.924;5.712;2024-01-11T12:27:54;103570.59;;;-0.24;81.64
84639;BME280;74869;51.924;5.712;2024-01-11T12:30:22;103557.00;;;-0.20;81.36
84639;BME280;74869;51.924;5.712;2024-01-11T12:32:49;103554.78;;;-0.15;81.64
84639;BME280;74869;51.924;5.712;2024-01-11T12:35:15;103565.72;;;-0.10;81.70
84639;BME280;74869;51.924;5.712;2024-01-11T12:37:40;103555.31;;;-0.11;81.56
84639;BME280;74869;51.924;5.712;2024-01-11T12:40:06;103541.44;;;-0.13;81.76
84639;BME280;74869;51.924;5.712;2024-01-11T12:42:34;103544.03;;;-0.04;81.95
84639;BME280;74869;51.924;5.712;2024-01-11T12:45:00;103540.81;;;0.03;81.65
84639;BME280;74869;51.924;5.712;2024-01-11T12:47:25;103551.91;;;0.16;81.68
84639;BME280;74869;51.924;5.712;2024-01-11T12:49:51;103554.69;;;0.24;81.67